Time;durP1;ratioP1;P1;durP2;ratioP2;P2;SDS_P1;SDS_P2;PMS_P1;PMS_P2;Temp;Humidity;BMP_temperature;BMP_pressure;BME280_temperature;BME280_humidity;BME280_pressure;Samples;Min_cycle;Max_cycle;Signal;HPM_P1;HPM_P2
2023/03/11 00:00:17;;;;;;;0.10;0.10;;;2.30;99.90;;;;;;5010087;28;20046;-61
2023/03/11 00:02:47;;;;;;;0.10;0.10;;;2.40;99.90;;;;;;5009505;28;20045;-61
2023/03/11 00:05:18;;;;;;;0.10;0.10;;;2.30;99.90;;;;;;5009719;28;20080;-61
2023/03/11 00:07:44;;;;;;;0.10;0.10;;;2.30;99.90;;;;;;5007161;28;20121;-62
2023/03/11 00:10:23;;;;;;;0.15;0.15;;;2.30;99.90;;;;;;5009921;28;20116;-61
2023/03/11 00:12:49;;;;;;;0.20;0.20;;;2.30;99.90;;;;;;5009554;28;20057;-61
2023/03/11 00:15:14;;;;;;;0.20;0.20;;;2.30;99.90;;;;;;5008439;28;20041;-61
2023/03/11 00:17:40;;;;;;;0.10;0.10;;;2.20;99.90;;;;;;5008980;28;20042;-62
2023/03/11 00:20:10;;;;;;;0.10;0.10;;;2.20;99.90;;;;;;5005113;28;20133;-61
2023/03/11 00:22:36;;;;;;;4.70;1.17;;;2.20;99.90;;;;;;5008590;28;20042;-61
2023/03/11 00:25:01;;;;;;;0.10;0.10;;;2.20;99.90;;;;;;5008776;28;20053;-62
2023/03/11 00:27:27;;;;;;;0.10;0.10;;;2.20;99.90;;;;;;5007453;28;20375;-62
2023/03/11 00:29:52;;;;;;;0.20;0.20;;;2.20;99.90;;;;;;5006049;28;20038;-62
2023/03/11 00:32:18;;;;;;;0.20;0.20;;;2.20;99.90;;;;;;5008971;28;20052;-62
2023/03/11 00:34:43;;;;;;;0.10;0.10;;;2.30;99.90;;;;;;5009431;28;20042;-61
2023/03/11 00:37:09;;;;;;;0.10;0.10;;;2.20;99.90;;;;;;5007229;28;20053;-61
2023/03/11 00:39:34;;;;;;;0.10;0.10;;;2.20;99.90;;;;;;5009443;28;20717;-62
2023/03/11 00:42:00;;;;;;;0.10;0.10;;;2.20;99.90;;;;;;5008691;28;20080;-62
2023/03/11 00:44:26;;;;;;;0.10;0.10;;;2.20;99.90;;;;;;5006723;28;20042;-62
2023/03/11 00:46:51;;;;;;;0.52;0.52;;;2.20;99.90;;;;;;4988150;28;20065;-61
2023/03/11 00:49:17;;;;;;;0.10;0.10;;;2.20;99.90;;;;;;5004786;28;20134;-61
2023/03/11 00:51:50;;;;;;;0.10;0.10;;;2.20;99.90;;;;;;5035949;27;20391;-62
2023/03/11 00:54:15;;;;;;;0.20;0.20;;;2.30;99.90;;;;;;5045510;28;20095;-61
2023/03/11 00:56:41;;;;;;;0.10;0.10;;;2.20;99.90;;;;;;5044839;28;20045;-61
2023/03/11 00:59:06;;;;;;;0.10;0.10;;;2.20;99.90;;;;;;5045230;28;20060;-61
2023/03/11 01:01:32;;;;;;;0.10;0.10;;;2.20;99.90;;;;;;5045567;28;20045;-61
2023/03/11 01:03:58;;;;;;;0.10;0.10;;;2.20;99.90;;;;;;5043617;28;20381;-61
2023/03/11 01:06:23;;;;;;;0.10;0.10;;;2.20;99.90;;;;;;5043429;28;20033;-61
2023/03/11 01:08:49;;;;;;;0.10;0.10;;;2.20;99.90;;;;;;5045856;28;20060;-61
2023/03/11 01:11:14;;;;;;;0.10;0.10;;;2.20;99.90;;;;;;5044175;28;20034;-61
2023/03/11 01:13:40;;;;;;;0.10;0.10;;;2.20;99.90;;;;;;5044181;28;20480;-61
2023/03/11 01:16:07;;;;;;;0.10;0.10;;;2.20;99.90;;;;;;5045190;28;20045;-61
2023/03/11 01:18:33;;;;;;;0.10;0.10;;;2.20;99.90;;;;;;5044685;28;20049;-61
2023/03/11 01:20:59;;;;;;;0.10;0.10;;;2.30;99.90;;;;;;5042695;28;20087;-61
2023/03/11 01:23:25;;;;;;;0.10;0.10;;;2.30;99.90;;;;;;5032979;28;20037;-61
2023/03/11 01:25:50;;;;;;;0.10;0.10;;;2.30;99.90;;;;;;5043290;28;20045;-61
2023/03/11 01:28:16;;;;;;;0.20;0.20;;;2.30;99.90;;;;;;5043725;28;20052;-61
2023/03/11 01:30:43;;;;;;;0.47;0.47;;;2.30;99.90;;;;;;5043910;28;20481;-61
2023/03/11 01:33:14;;;;;;;0.10;0.10;;;2.30;99.90;;;;;;5044289;28;20037;-61
2023/03/11 01:35:41;;;;;;;0.10;0.10;;;2.30;99.90;;;;;;5042584;28;20060;-61
2023/03/11 01:38:07;;;;;;;0.10;0.10;;;2.30;99.90;;;;;;5043703;28;20041;-61
2023/03/11 01:40:44;;;;;;;0.10;0.10;;;2.30;99.90;;;;;;5039076;28;20358;-61
2023/03/11 01:43:40;;;;;;;0.10;0.10;;;2.20;99.90;;;;;;5043524;28;20512;-61
2023/03/11 01:46:12;;;;;;;0.10;0.10;;;2.20;99.90;;;;;;5044286;28;20472;-61
2023/03/11 01:48:38;;;;;;;0.20;0.20;;;2.20;99.90;;;;;;5043572;28;20116;-61
2023/03/11 01:51:05;;;;;;;0.10;0.10;;;2.10;99.90;;;;;;5042302;28;20053;-61
2023/03/11 01:53:32;;;;;;;0.20;0.20;;;2.10;99.90;;;;;;5042221;28;20041;-61
2023/03/11 01:55:58;;;;;;;0.20;0.20;;;2.00;99.90;;;;;;5043217;28;20512;-61
2023/03/11 01:58:29;;;;;;;0.10;0.10;;;2.10;99.90;;;;;;5043793;28;20033;-61
2023/03/11 02:00:56;;;;;;;0.10;0.10;;;2.10;99.90;;;;;;5039743;28;20041;-61
2023/03/11 02:03:36;;;;;;;0.13;0.13;;;2.10;99.90;;;;;;5029035;28;20481;-61
2023/03/11 02:06:06;;;;;;;0.10;0.10;;;2.00;99.90;;;;;;5030186;28;20497;-61
2023/03/11 02:08:33;;;;;;;0.10;0.10;;;2.00;99.90;;;;;;5029234;28;20041;-61
2023/03/11 02:11:00;;;;;;;0.65;0.65;;;2.00;99.90;;;;;;5030383;28;20151;-61
2023/03/11 02:13:26;;;;;;;0.10;0.10;;;2.00;99.90;;;;;;5027725;28;20045;-61
2023/03/11 02:15:52;;;;;;;0.13;0.13;;;1.90;99.90;;;;;;5027811;28;20047;-61
2023/03/11 02:18:19;;;;;;;0.10;0.10;;;1.90;99.90;;;;;;5030274;28;20033;-61
2023/03/11 02:20:56;;;;;;;0.10;0.10;;;1.90;99.90;;;;;;5029998;28;20046;-61
2023/03/11 02:23:27;;;;;;;1.05;1.05;;;1.90;99.90;;;;;;5029028;28;20037;-61
2023/03/11 02:26:01;;;;;;;0.63;0.63;;;1.90;99.90;;;;;;5030167;28;20045;-61
2023/03/11 02:28:28;;;;;;;0.20;0.20;;;1.90;99.90;;;;;;5029584;28;20060;-61
2023/03/11 02:30:55;;;;;;;0.10;0.10;;;1.90;99.90;;;;;;5029284;28;20519;-61
2023/03/11 02:33:25;;;;;;;1.23;1.13;;;1.90;99.90;;;;;;5028479;28;20087;-61
2023/03/11 02:35:50;;;;;;;1.65;1.30;;;1.90;99.90;;;;;;5028599;28;20054;-61
2023/03/11 02:38:16;;;;;;;0.10;0.10;;;1.90;99.90;;;;;;5030452;28;20043;-61
2023/03/11 02:41:00;;;;;;;0.30;0.30;;;1.90;99.90;;;;;;5029586;28;20053;-61
2023/03/11 02:43:40;;;;;;;0.45;0.38;;;1.90;99.90;;;;;;5022377;28;20057;-61
2023/03/11 02:46:09;;;;;;;0.17;0.17;;;1.80;99.90;;;;;;5029958;28;20041;-61
2023/03/11 02:48:36;;;;;;;0.63;0.63;;;1.80;99.90;;;;;;5027909;28;20448;-61
2023/03/11 02:51:02;;;;;;;0.20;0.20;;;1.80;99.90;;;;;;5028067;28;20635;-61
2023/03/11 02:53:32;;;;;;;0.17;0.17;;;1.80;99.90;;;;;;5028929;28;20481;-61
2023/03/11 02:55:57;;;;;;;0.10;0.10;;;1.80;99.90;;;;;;5028684;28;20049;-61
2023/03/11 02:58:23;;;;;;;0.10;0.10;;;1.70;99.90;;;;;;5028671;28;20989;-61
2023/03/11 03:00:49;;;;;;;0.10;0.10;;;1.70;99.90;;;;;;5027157;28;20099;-61
2023/03/11 03:03:14;;;;;;;0.10;0.10;;;1.70;99.90;;;;;;5028763;28;20033;-61
2023/03/11 03:05:40;;;;;;;0.10;0.10;;;1.60;99.90;;;;;;5028374;28;20053;-61
2023/03/11 03:08:06;;;;;;;0.10;0.10;;;1.60;99.90;;;;;;5029393;28;20041;-61
2023/03/11 03:10:31;;;;;;;0.10;0.10;;;1.50;99.90;;;;;;5029675;28;20556;-61
2023/03/11 03:12:57;;;;;;;0.10;0.10;;;1.60;99.90;;;;;;5020345;28;20087;-61
2023/03/11 03:15:23;;;;;;;0.10;0.10;;;1.60;99.90;;;;;;5029072;28;20125;-62
2023/03/11 03:17:50;;;;;;;0.10;0.10;;;1.60;99.90;;;;;;5028771;28;20045;-61
2023/03/11 03:20:17;;;;;;;0.10;0.10;;;1.50;99.90;;;;;;5027998;28;20493;-61
2023/03/11 03:22:43;;;;;;;0.10;0.10;;;1.60;99.90;;;;;;5017821;28;20049;-61
2023/03/11 03:25:09;;;;;;;0.10;0.10;;;1.60;99.90;;;;;;5022440;28;20060;-61
2023/03/11 03:27:36;;;;;;;0.20;0.20;;;1.70;99.90;;;;;;5026312;28;20513;-61
2023/03/11 03:30:03;;;;;;;0.10;0.10;;;1.60;99.90;;;;;;5025007;28;20042;-61
2023/03/11 03:32:28;;;;;;;0.90;0.82;;;1.60;99.90;;;;;;5027997;28;20041;-60
2023/03/11 03:34:57;;;;;;;0.10;0.10;;;1.60;99.90;;;;;;5019037;28;20053;-61
2023/03/11 03:37:24;;;;;;;0.10;0.10;;;1.60;99.90;;;;;;5028095;28;20052;-61
2023/03/11 03:39:50;;;;;;;0.15;0.15;;;1.60;99.90;;;;;;5015869;28;20056;-61
2023/03/11 03:42:16;;;;;;;17.90;1.65;;;1.60;99.90;;;;;;5029611;28;20030;-61
2023/03/11 03:44:41;;;;;;;0.20;0.20;;;1.50;99.90;;;;;;5023532;28;20045;-60
2023/03/11 03:47:07;;;;;;;0.17;0.17;;;1.50;99.90;;;;;;5028584;28;20048;-61
2023/03/11 03:49:33;;;;;;;0.50;0.50;;;1.50;99.90;;;;;;5028344;28;20489;-61
2023/03/11 03:51:58;;;;;;;0.50;0.50;;;1.60;99.90;;;;;;5026742;28;20052;-61
2023/03/11 03:54:24;;;;;;;0.10;0.10;;;1.50;99.90;;;;;;5025097;28;20037;-61
2023/03/11 03:56:49;;;;;;;0.10;0.10;;;1.40;99.90;;;;;;5027936;28;20120;-61
2023/03/11 03:59:15;;;;;;;0.13;0.13;;;1.40;99.90;;;;;;5028640;28;20049;-61
2023/03/11 04:01:40;;;;;;;0.10;0.10;;;1.30;99.90;;;;;;5027947;28;20045;-61
2023/03/11 04:04:06;;;;;;;0.10;0.10;;;1.30;99.90;;;;;;5028420;28;20046;-61
2023/03/11 04:06:32;;;;;;;0.10;0.10;;;1.20;99.90;;;;;;5027098;28;20141;-61
2023/03/11 04:08:57;;;;;;;0.10;0.10;;;1.20;99.90;;;;;;5027790;28;20049;-61
2023/03/11 04:11:23;;;;;;;0.10;0.10;;;1.10;99.90;;;;;;5025420;28;20072;-61
2023/03/11 04:13:48;;;;;;;0.10;0.10;;;1.10;99.90;;;;;;5027581;28;20041;-61
2023/03/11 04:16:17;;;;;;;0.10;0.10;;;1.00;99.90;;;;;;5022383;28;20041;-61
2023/03/11 04:18:43;;;;;;;0.20;0.20;;;1.00;99.90;;;;;;5027330;28;20489;-60
2023/03/11 04:21:08;;;;;;;0.65;0.65;;;1.00;99.90;;;;;;5013821;28;20052;-61
2023/03/11 04:23:34;;;;;;;0.10;0.10;;;1.00;99.90;;;;;;5027082;28;20042;-60
2023/03/11 04:26:00;;;;;;;0.10;0.10;;;1.00;99.90;;;;;;5017129;28;20049;-61
2023/03/11 04:28:26;;;;;;;0.20;0.20;;;1.00;99.90;;;;;;5027325;28;20049;-60
2023/03/11 04:30:52;;;;;;;0.10;0.10;;;1.00;99.90;;;;;;5019417;28;20200;-61
2023/03/11 04:33:17;;;;;;;0.10;0.10;;;1.00;99.90;;;;;;5028462;28;20083;-61
2023/03/11 04:35:43;;;;;;;0.17;0.17;;;1.00;99.90;;;;;;5026651;28;20049;-60
2023/03/11 04:38:09;;;;;;;0.10;0.10;;;0.90;99.90;;;;;;5027916;28;20080;-60
2023/03/11 04:40:36;;;;;;;0.10;0.10;;;0.90;99.90;;;;;;5027895;28;20111;-60
2023/03/11 04:43:02;;;;;;;0.20;0.20;;;0.90;99.90;;;;;;5027231;28;20556;-61
2023/03/11 04:45:27;;;;;;;0.10;0.10;;;0.90;99.90;;;;;;5015279;28;20120;-60
2023/03/11 04:47:53;;;;;;;0.15;0.15;;;0.90;99.90;;;;;;5026943;28;20473;-60
2023/03/11 04:50:18;;;;;;;0.10;0.10;;;0.90;99.90;;;;;;5017841;28;20053;-60
2023/03/11 04:52:45;;;;;;;0.10;0.10;;;0.90;99.90;;;;;;5027211;28;20072;-60
2023/03/11 04:55:12;;;;;;;0.10;0.10;;;0.90;99.90;;;;;;5020907;28;20551;-60
2023/03/11 04:57:41;;;;;;;0.10;0.10;;;0.80;99.90;;;;;;5027333;28;20125;-60
2023/03/11 05:00:10;;;;;;;0.10;0.10;;;0.80;99.90;;;;;;5025855;28;20111;-61
2023/03/11 05:02:36;;;;;;;0.10;0.10;;;0.80;99.90;;;;;;5027569;28;20045;-61
2023/03/11 05:05:03;;;;;;;0.15;0.15;;;0.70;99.90;;;;;;5023309;28;20052;-60
2023/03/11 05:07:28;;;;;;;0.10;0.10;;;0.70;99.90;;;;;;5027954;28;20536;-60
2023/03/11 05:09:54;;;;;;;0.20;0.20;;;0.70;99.90;;;;;;5020233;28;20081;-60
2023/03/11 05:12:19;;;;;;;0.10;0.10;;;0.60;99.90;;;;;;5026725;28;20064;-60
2023/03/11 05:14:45;;;;;;;0.10;0.10;;;0.60;99.90;;;;;;5027806;28;20041;-61
2023/03/11 05:17:12;;;;;;;0.10;0.10;;;0.60;99.90;;;;;;5027168;28;20053;-60
2023/03/11 05:19:38;;;;;;;0.20;0.20;;;0.60;99.90;;;;;;5025585;28;20055;-60
2023/03/11 05:22:05;;;;;;;0.10;0.10;;;0.60;99.90;;;;;;5026783;28;20045;-60
2023/03/11 05:24:31;;;;;;;0.20;0.20;;;0.50;99.90;;;;;;5019851;28;20045;-61
2023/03/11 05:26:57;;;;;;;0.20;0.20;;;0.50;99.90;;;;;;5026376;28;20049;-60
2023/03/11 05:29:23;;;;;;;0.10;0.10;;;0.40;99.90;;;;;;5026986;28;20397;-60
2023/03/11 05:31:49;;;;;;;0.10;0.10;;;0.40;99.90;;;;;;5014151;28;20582;-61
2023/03/11 05:34:15;;;;;;;0.20;0.20;;;0.40;99.90;;;;;;5027800;28;20112;-60
2023/03/11 05:36:42;;;;;;;0.10;0.10;;;0.50;99.90;;;;;;5026592;28;20593;-60
2023/03/11 05:39:07;;;;;;;0.10;0.10;;;0.50;99.90;;;;;;5029657;28;20042;-60
2023/03/11 05:41:33;;;;;;;0.10;0.10;;;0.50;99.90;;;;;;5029168;28;20041;-60
2023/03/11 05:43:58;;;;;;;0.15;0.15;;;0.50;99.90;;;;;;5023725;28;20055;-60
2023/03/11 05:46:24;;;;;;;0.20;0.20;;;0.50;99.90;;;;;;5026193;28;20504;-60
2023/03/11 05:48:50;;;;;;;0.10;0.10;;;0.40;99.90;;;;;;5031972;28;20132;-60
2023/03/11 05:51:15;;;;;;;10.10;2.65;;;0.40;99.90;;;;;;5030446;28;20060;-61
2023/03/11 05:53:47;;;;;;;3.33;2.05;;;0.40;99.90;;;;;;5029851;28;20046;-60
2023/03/11 05:56:13;;;;;;;0.10;0.10;;;0.40;99.90;;;;;;5027003;28;20047;-60
2023/03/11 05:58:38;;;;;;;0.20;0.20;;;0.30;99.90;;;;;;5030675;28;20501;-60
2023/03/11 06:01:09;;;;;;;0.35;0.35;;;0.30;99.90;;;;;;5030027;28;20124;-60
2023/03/11 06:03:35;;;;;;;0.10;0.10;;;0.20;99.90;;;;;;5030496;28;20041;-60
2023/03/11 06:06:00;;;;;;;0.10;0.10;;;0.20;99.90;;;;;;5030787;28;20091;-60
2023/03/11 06:08:26;;;;;;;0.10;0.10;;;0.20;99.90;;;;;;5030053;28;20042;-60
2023/03/11 06:10:52;;;;;;;3.55;2.53;;;0.10;99.90;;;;;;5030736;28;20437;-60
2023/03/11 06:13:17;;;;;;;0.10;0.10;;;0.00;99.90;;;;;;5029437;28;20405;-60
2023/03/11 06:15:44;;;;;;;0.10;0.10;;;0.10;99.90;;;;;;5031032;28;20087;-60
2023/03/11 06:18:10;;;;;;;0.10;0.10;;;0.20;99.90;;;;;;5030149;28;20053;-60
2023/03/11 06:20:36;;;;;;;0.10;0.10;;;0.20;99.90;;;;;;5030094;28;20067;-59
2023/03/11 06:23:02;;;;;;;0.20;0.20;;;0.10;99.90;;;;;;5030655;28;20056;-60
2023/03/11 06:25:27;;;;;;;0.10;0.10;;;0.10;99.90;;;;;;5029174;28;20045;-61
2023/03/11 06:27:53;;;;;;;0.15;0.15;;;0.00;99.90;;;;;;5027112;28;20037;-60
2023/03/11 06:30:19;;;;;;;0.10;0.10;;;0.20;99.90;;;;;;5029665;28;20037;-60
2023/03/11 06:32:46;;;;;;;0.10;0.10;;;0.10;99.90;;;;;;5029190;28;20045;-60
2023/03/11 06:35:12;;;;;;;0.20;0.20;;;0.10;99.90;;;;;;5028796;28;20037;-60
2023/03/11 06:37:38;;;;;;;0.95;0.95;;;0.10;99.90;;;;;;5029625;28;20041;-60
2023/03/11 06:40:06;;;;;;;0.13;0.13;;;0.10;99.90;;;;;;5028621;28;20060;-60
2023/03/11 06:42:32;;;;;;;0.10;0.10;;;0.10;99.90;;;;;;5029843;28;20037;-60
2023/03/11 06:44:58;;;;;;;0.20;0.20;;;0.10;99.90;;;;;;5020451;28;20050;-60
2023/03/11 06:47:23;;;;;;;0.10;0.10;;;0.20;99.90;;;;;;5029890;28;20111;-60
2023/03/11 06:49:50;;;;;;;0.20;0.20;;;0.20;99.90;;;;;;5028325;28;20061;-60
2023/03/11 06:52:15;;;;;;;0.57;0.57;;;0.20;99.90;;;;;;5030403;28;20085;-60
2023/03/11 06:54:41;;;;;;;0.20;0.20;;;0.20;99.90;;;;;;5029390;28;20516;-60
2023/03/11 06:57:08;;;;;;;0.10;0.10;;;0.30;99.90;;;;;;5021997;28;20049;-60
2023/03/11 06:59:34;;;;;;;0.10;0.10;;;0.30;99.90;;;;;;5029723;28;20444;-60
2023/03/11 07:02:00;;;;;;;0.10;0.10;;;0.40;99.90;;;;;;5029293;28;20036;-60
2023/03/11 07:04:26;;;;;;;0.10;0.10;;;0.40;99.90;;;;;;5025753;28;20037;-60
2023/03/11 07:06:51;;;;;;;0.20;0.20;;;0.40;99.90;;;;;;5029235;28;20092;-60
2023/03/11 07:09:17;;;;;;;0.20;0.20;;;0.50;99.90;;;;;;5029563;28;20041;-60
2023/03/11 07:11:42;;;;;;;0.17;0.17;;;0.50;99.90;;;;;;5026985;28;20124;-60
2023/03/11 07:14:08;;;;;;;0.10;0.10;;;0.50;99.90;;;;;;5029394;28;20120;-60
2023/03/11 07:16:34;;;;;;;0.20;0.20;;;0.60;99.90;;;;;;5027102;28;20565;-60
2023/03/11 07:19:01;;;;;;;0.20;0.20;;;0.60;99.90;;;;;;5027432;28;20045;-60
2023/03/11 07:21:30;;;;;;;0.10;0.10;;;0.70;99.90;;;;;;5028232;28;20420;-63
2023/03/11 07:23:58;;;;;;;0.10;0.10;;;0.70;99.90;;;;;;5028623;28;20393;-60
2023/03/11 07:26:24;;;;;;;0.20;0.20;;;0.80;99.90;;;;;;5028612;28;20065;-60
2023/03/11 07:28:51;;;;;;;3.03;2.78;;;0.90;99.90;;;;;;5027520;28;20084;-60
2023/03/11 07:31:26;;;;;;;0.13;0.13;;;1.00;99.90;;;;;;5027172;28;20095;-60
2023/03/11 07:33:52;;;;;;;0.20;0.20;;;1.10;99.90;;;;;;5028690;28;20048;-60
2023/03/11 07:36:20;;;;;;;0.20;0.20;;;1.20;99.90;;;;;;5028310;28;20400;-60
2023/03/11 07:38:46;;;;;;;0.10;0.10;;;1.30;99.90;;;;;;5027437;28;20109;-60
2023/03/11 07:41:13;;;;;;;0.10;0.10;;;1.30;99.90;;;;;;5028227;28;20531;-60
2023/03/11 07:43:42;;;;;;;0.20;0.20;;;1.40;99.90;;;;;;5023852;28;20052;-60
2023/03/11 07:46:15;;;;;;;0.17;0.17;;;1.50;99.90;;;;;;5023292;28;20858;-60
2023/03/11 07:48:41;;;;;;;0.20;0.20;;;1.60;99.90;;;;;;5027760;28;20053;-60
2023/03/11 07:51:11;;;;;;;1.25;1.23;;;1.70;99.90;;;;;;5028516;28;20315;-60
2023/03/11 07:53:39;;;;;;;0.15;0.15;;;1.70;99.90;;;;;;5025191;28;20120;-60
2023/03/11 07:56:06;;;;;;;0.10;0.10;;;1.70;99.90;;;;;;5021880;28;20048;-60
2023/03/11 07:58:31;;;;;;;0.10;0.10;;;1.80;99.90;;;;;;5029071;28;20045;-60
2023/03/11 08:01:03;;;;;;;0.10;0.10;;;1.90;99.90;;;;;;5027020;28;20129;-60
2023/03/11 08:03:29;;;;;;;0.10;0.10;;;2.30;99.90;;;;;;5022467;28;20048;-60
2023/03/11 08:05:54;;;;;;;3.00;1.50;;;2.70;99.90;;;;;;5024288;28;20037;-60
2023/03/11 08:08:20;;;;;;;0.20;0.20;;;3.00;99.90;;;;;;5020549;28;20088;-60
2023/03/11 08:10:45;;;;;;;0.10;0.10;;;3.10;99.90;;;;;;5022166;28;20044;-60
2023/03/11 08:13:11;;;;;;;0.10;0.10;;;3.10;99.90;;;;;;5025163;28;21909;-60
2023/03/11 08:15:37;;;;;;;0.10;0.10;;;3.10;99.90;;;;;;5030793;28;20088;-61
2023/03/11 08:18:02;;;;;;;0.10;0.10;;;3.10;99.90;;;;;;5029728;28;20068;-61
2023/03/11 08:20:28;;;;;;;0.10;0.10;;;3.00;99.90;;;;;;5026131;28;20033;-61
2023/03/11 08:22:53;;;;;;;0.10;0.10;;;2.90;99.90;;;;;;5029832;28;20162;-61
2023/03/11 08:25:19;;;;;;;0.10;0.10;;;2.90;99.90;;;;;;5022263;28;20931;-61
2023/03/11 08:27:45;;;;;;;0.10;0.10;;;2.90;99.90;;;;;;5020639;28;20072;-61
2023/03/11 08:30:11;;;;;;;0.63;0.63;;;2.90;99.90;;;;;;5024623;28;20041;-61
2023/03/11 08:32:36;;;;;;;0.75;0.75;;;2.90;99.90;;;;;;5024085;28;20047;-62
2023/03/11 08:35:02;;;;;;;0.70;0.40;;;2.90;99.90;;;;;;5027064;28;20597;-61
2023/03/11 08:37:27;;;;;;;0.10;0.10;;;3.00;99.90;;;;;;5027357;28;20103;-61
2023/03/11 08:39:53;;;;;;;1.30;1.20;;;3.00;99.90;;;;;;5026340;28;20543;-61
2023/03/11 08:42:19;;;;;;;0.10;0.10;;;3.10;99.90;;;;;;5027423;28;20068;-61
2023/03/11 08:44:45;;;;;;;0.10;0.10;;;3.10;99.90;;;;;;5027062;28;20064;-61
2023/03/11 08:47:11;;;;;;;0.10;0.10;;;3.10;99.90;;;;;;5014806;28;20474;-61
2023/03/11 08:49:37;;;;;;;0.10;0.10;;;3.20;99.90;;;;;;5025933;28;20108;-61
2023/03/11 08:52:03;;;;;;;0.10;0.10;;;3.20;99.90;;;;;;5027854;28;20053;-61
2023/03/11 08:54:29;;;;;;;0.10;0.10;;;3.30;99.90;;;;;;5027760;28;20064;-61
2023/03/11 08:56:55;;;;;;;0.10;0.10;;;3.40;99.90;;;;;;5016868;28;20042;-61
2023/03/11 08:59:20;;;;;;;0.47;0.47;;;3.40;99.90;;;;;;5023407;28;20513;-61
2023/03/11 09:01:46;;;;;;;0.10;0.10;;;3.40;99.90;;;;;;5026748;28;20037;-61
2023/03/11 09:04:12;;;;;;;0.35;0.35;;;3.40;99.90;;;;;;5026205;28;20061;-61
2023/03/11 09:06:44;;;;;;;0.10;0.10;;;3.40;99.90;;;;;;5022645;28;20045;-61
2023/03/11 09:09:11;;;;;;;0.10;0.10;;;3.50;99.90;;;;;;5021467;28;20038;-61
2023/03/11 09:11:36;;;;;;;0.10;0.10;;;3.50;99.90;;;;;;5018483;28;20056;-61
2023/03/11 09:14:03;;;;;;;0.10;0.10;;;3.50;99.90;;;;;;5031544;28;20049;-62
2023/03/11 09:16:29;;;;;;;0.10;0.10;;;3.50;99.90;;;;;;5029936;28;20422;-62
2023/03/11 09:18:54;;;;;;;0.10;0.10;;;3.60;99.90;;;;;;5026892;28;20112;-61
2023/03/11 09:21:20;;;;;;;0.15;0.15;;;3.60;99.90;;;;;;5030324;28;20034;-61
2023/03/11 09:23:46;;;;;;;0.10;0.10;;;3.60;99.90;;;;;;5031236;28;20040;-61
2023/03/11 09:26:12;;;;;;;0.10;0.10;;;3.60;99.90;;;;;;5024857;28;20060;-62
2023/03/11 09:28:38;;;;;;;0.10;0.10;;;3.70;99.90;;;;;;5031100;28;20038;-62
2023/03/11 09:31:04;;;;;;;0.10;0.10;;;3.90;99.90;;;;;;5029652;28;20056;-62
2023/03/11 09:33:30;;;;;;;0.10;0.10;;;4.90;99.90;;;;;;5029782;28;20037;-62
2023/03/11 09:35:57;;;;;;;0.10;0.10;;;5.70;99.90;;;;;;5030668;28;20061;-62
2023/03/11 09:38:23;;;;;;;0.10;0.10;;;6.50;99.90;;;;;;5030436;28;20092;-62
2023/03/11 09:41:08;;;;;;;0.10;0.10;;;7.40;99.90;;;;;;5030718;28;20077;-62
2023/03/11 09:43:43;;;;;;;2.40;2.25;;;8.00;99.90;;;;;;5031198;28;20029;-62
2023/03/11 09:46:48;;;;;;;0.10;0.10;;;8.70;99.90;;;;;;5022273;28;20076;-62
2023/03/11 09:49:25;;;;;;;0.10;0.10;;;9.00;99.90;;;;;;5028084;28;20456;-62
2023/03/11 09:52:09;;;;;;;0.10;0.10;;;9.40;99.90;;;;;;5023246;28;20050;-62
2023/03/11 09:54:47;;;;;;;0.10;0.10;;;9.30;99.90;;;;;;5028848;28;20045;-62
2023/03/11 09:57:21;;;;;;;0.08;0.08;;;9.40;99.90;;;;;;5031088;28;20041;-62
2023/03/11 09:59:48;;;;;;;0.05;0.05;;;9.80;99.90;;;;;;5030375;28;20045;-62
2023/03/11 10:02:19;;;;;;;0.20;0.20;;;9.90;99.90;;;;;;5026873;28;20041;-62
2023/03/11 10:04:56;;;;;;;0.52;0.52;;;10.00;99.90;;;;;;5029607;28;20068;-62
2023/03/11 10:07:35;;;;;;;0.10;0.10;;;9.70;99.90;;;;;;5027450;28;20076;-62
2023/03/11 10:10:01;;;;;;;0.10;0.10;;;9.50;99.90;;;;;;5028676;28;20508;-62
2023/03/11 10:12:38;;;;;;;0.10;0.10;;;9.40;99.90;;;;;;5027509;28;20050;-62
2023/03/11 10:15:15;;;;;;;0.10;0.10;;;9.20;99.90;;;;;;5026874;28;20029;-62
2023/03/11 10:18:13;;;;;;;0.20;0.20;;;9.10;99.90;;;;;;5017024;28;20465;-62
2023/03/11 10:20:47;;;;;;;0.00;0.00;;;9.00;99.90;;;;;;5024428;28;20088;-62
2023/03/11 10:23:43;;;;;;;0.00;0.00;;;8.80;99.90;;;;;;5029827;28;20615;-62
2023/03/11 10:26:18;;;;;;;0.10;0.10;;;8.80;99.90;;;;;;5028461;28;20049;-62
2023/03/11 10:29:12;;;;;;;0.10;0.10;;;8.70;99.90;;;;;;5025747;28;20057;-62
2023/03/11 10:31:44;;;;;;;0.08;0.08;;;8.70;99.90;;;;;;5032165;28;20045;-62
2023/03/11 10:34:20;;;;;;;0.00;0.00;;;8.70;99.90;;;;;;5016761;28;20045;-62
2023/03/11 10:37:02;;;;;;;0.30;0.30;;;8.40;99.90;;;;;;5030102;28;20076;-62
2023/03/11 10:39:30;;;;;;;0.52;0.52;;;8.50;99.90;;;;;;5019607;28;20038;-62
2023/03/11 10:42:04;;;;;;;0.95;0.85;;;8.50;99.90;;;;;;5025471;28;20116;-62
2023/03/11 10:44:38;;;;;;;0.10;0.10;;;8.40;99.90;;;;;;5028318;28;20053;-62
2023/03/11 10:47:05;;;;;;;0.10;0.10;;;8.20;99.90;;;;;;5028951;28;20073;-62
2023/03/11 10:49:31;;;;;;;0.10;0.10;;;8.20;99.90;;;;;;5029047;28;20084;-63
2023/03/11 10:51:57;;;;;;;0.10;0.10;;;8.20;99.90;;;;;;5015123;28;20092;-62
2023/03/11 10:54:30;;;;;;;0.00;0.00;;;8.30;99.90;;;;;;5027153;28;20386;-62
2023/03/11 10:57:05;;;;;;;0.10;0.10;;;8.20;99.90;;;;;;5026505;28;20046;-62
2023/03/11 10:59:44;;;;;;;0.10;0.10;;;8.40;99.90;;;;;;5026980;28;20053;-61
2023/03/11 11:02:32;;;;;;;0.20;0.20;;;8.60;99.90;;;;;;5026644;28;20045;-62
2023/03/11 11:05:16;;;;;;;0.10;0.10;;;8.80;99.90;;;;;;5024115;28;20183;-62
2023/03/11 11:07:42;;;;;;;0.00;0.00;;;8.80;99.90;;;;;;5024713;28;20128;-62
2023/03/11 11:10:10;;;;;;;0.05;0.05;;;8.60;99.90;;;;;;5028008;28;20053;-62
2023/03/11 11:12:49;;;;;;;0.30;0.30;;;8.20;99.90;;;;;;5028394;28;20118;-62
2023/03/11 11:15:34;;;;;;;0.10;0.10;;;8.20;99.90;;;;;;5027588;28;20052;-62
2023/03/11 11:18:28;;;;;;;0.10;0.10;;;8.00;99.90;;;;;;5018332;28;20049;-62
2023/03/11 11:21:02;;;;;;;0.10;0.10;;;8.20;99.90;;;;;;5041841;28;20050;-62
2023/03/11 11:23:32;;;;;;;0.10;0.10;;;8.60;99.90;;;;;;5027898;28;20042;-62
2023/03/11 11:26:02;;;;;;;0.10;0.10;;;8.50;99.90;;;;;;5016685;28;20473;-62
2023/03/11 11:28:28;;;;;;;0.10;0.10;;;8.50;99.90;;;;;;5027442;28;20072;-62
2023/03/11 11:30:57;;;;;;;0.00;0.00;;;8.50;99.90;;;;;;5028765;28;20195;-62
2023/03/11 11:33:30;;;;;;;0.10;0.10;;;8.50;99.90;;;;;;5028550;28;20045;-62
2023/03/11 11:36:01;;;;;;;0.10;0.10;;;8.50;99.90;;;;;;5012660;28;20389;-62
2023/03/11 11:38:28;;;;;;;0.00;0.00;;;8.70;99.90;;;;;;5025038;28;20160;-62
2023/03/11 11:40:56;;;;;;;0.10;0.10;;;8.80;99.90;;;;;;5029413;28;20037;-62
2023/03/11 11:43:41;;;;;;;0.10;0.10;;;8.70;99.90;;;;;;5028134;28;20459;-62
2023/03/11 11:46:21;;;;;;;0.10;0.10;;;8.50;99.90;;;;;;5029218;28;20067;-62
2023/03/11 11:48:51;;;;;;;0.00;0.00;;;8.40;99.90;;;;;;5029771;28;20099;-62
2023/03/11 11:51:24;;;;;;;0.20;0.20;;;8.40;99.90;;;;;;5027447;28;20057;-62
2023/03/11 11:54:37;;;;;;;0.10;0.10;;;8.50;99.90;;;;;;5026756;28;20049;-62
2023/03/11 11:57:15;;;;;;;0.10;0.10;;;8.60;99.90;;;;;;5029337;28;20057;-62
2023/03/11 11:59:42;;;;;;;4.75;1.10;;;8.60;99.90;;;;;;5021316;28;20572;-62
2023/03/11 12:02:22;;;;;;;0.30;0.30;;;8.70;99.90;;;;;;5028134;28;20048;-62
2023/03/11 12:04:51;;;;;;;0.10;0.10;;;8.80;99.90;;;;;;5027706;28;20057;-62
2023/03/11 12:07:46;;;;;;;0.10;0.10;;;9.10;99.90;;;;;;5029033;28;20053;-62
2023/03/11 12:10:30;;;;;;;0.10;0.10;;;9.20;99.90;;;;;;5019327;28;20057;-62
2023/03/11 12:13:27;;;;;;;0.10;0.10;;;9.30;99.90;;;;;;5027762;28;20509;-62
2023/03/11 12:16:30;;;;;;;0.10;0.10;;;9.50;99.90;;;;;;5023998;28;20544;-62
2023/03/11 12:19:03;;;;;;;0.22;0.22;;;9.60;99.90;;;;;;5021940;28;20040;-62
2023/03/11 12:21:49;;;;;;;0.00;0.00;;;9.60;99.90;;;;;;5028369;28;20504;-62
2023/03/11 12:24:32;;;;;;;0.00;0.00;;;9.60;99.90;;;;;;5027847;28;20080;-62
2023/03/11 12:27:24;;;;;;;2.30;2.10;;;9.80;99.90;;;;;;5027696;28;20049;-62
2023/03/11 12:30:01;;;;;;;0.08;0.08;;;10.10;99.90;;;;;;5028731;28;20048;-62
2023/03/11 12:32:38;;;;;;;0.57;0.43;;;10.40;99.90;;;;;;5028172;28;20427;-62
2023/03/11 12:35:23;;;;;;;0.10;0.10;;;10.40;99.90;;;;;;5020804;28;20048;-62
2023/03/11 12:38:11;;;;;;;0.10;0.10;;;10.60;99.90;;;;;;5026689;28;20056;-62
2023/03/11 12:40:42;;;;;;;0.10;0.10;;;10.50;99.90;;;;;;5024568;28;20034;-62
2023/03/11 12:43:32;;;;;;;0.05;0.05;;;10.10;99.90;;;;;;5020073;28;20044;-62
2023/03/11 12:45:59;;;;;;;0.10;0.10;;;9.50;99.90;;;;;;5025524;28;20742;-62
2023/03/11 12:48:44;;;;;;;0.00;0.00;;;9.50;99.90;;;;;;5024555;28;20046;-62
2023/03/11 12:51:25;;;;;;;0.10;0.10;;;10.10;99.90;;;;;;5026432;28;20068;-62
2023/03/11 12:53:50;;;;;;;0.10;0.10;;;10.20;99.90;;;;;;5023639;28;20061;-63
2023/03/11 12:56:22;;;;;;;0.00;0.00;;;10.40;99.90;;;;;;5027191;28;20053;-62
2023/03/11 12:59:09;;;;;;;0.15;0.15;;;10.30;99.90;;;;;;5028145;28;20056;-62
2023/03/11 13:02:11;;;;;;;0.10;0.10;;;10.60;99.90;;;;;;5023963;28;20052;-63
2023/03/11 13:04:43;;;;;;;0.00;0.00;;;10.50;99.90;;;;;;5024456;28;20048;-62
2023/03/11 13:07:40;;;;;;;0.00;0.00;;;10.40;99.90;;;;;;5026148;28;20528;-63